Time;durP1;ratioP1;P1;durP2;ratioP2;P2;SDS_P1;SDS_P2;PMS_P1;PMS_P2;Temp;Humidity;BMP_temperature;BMP_pressure;BME280_temperature;BME280_humidity;BME280_pressure;Samples;Min_cycle;Max_cycle;Signal;HPM_P1;HPM_P2
2022/07/24 00:00:59;;;;;;;11.13;10.10;;;;;;;;;;5070926;28;20031;-62
2022/07/24 00:03:26;;;;;;;11.45;10.55;;;;;;;;;;5070838;28;20032;-63
2022/07/24 00:05:51;;;;;;;10.98;9.95;;;;;;;;;;5048581;28;20081;-61
2022/07/24 00:08:16;;;;;;;10.93;10.00;;;;;;;;;;5067053;28;20036;-61
2022/07/24 00:10:42;;;;;;;11.07;10.07;;;;;;;;;;5069556;28;20024;-60
2022/07/24 00:13:07;;;;;;;10.73;9.73;;;;;;;;;;5067549;28;20025;-62
2022/07/24 00:15:32;;;;;;;9.38;8.40;;;;;;;;;;5070071;28;20040;-61
2022/07/24 00:17:57;;;;;;;10.10;9.25;;;;;;;;;;5068944;28;20032;-62
2022/07/24 00:20:23;;;;;;;9.43;8.52;;;;;;;;;;5069987;28;20275;-61
2022/07/24 00:22:48;;;;;;;9.23;8.43;;;;;;;;;;5061271;28;20028;-61
2022/07/24 00:25:13;;;;;;;9.95;8.98;;;;;;;;;;5070321;28;20036;-60
2022/07/24 00:27:39;;;;;;;9.77;9.00;;;;;;;;;;5069145;28;20036;-61
2022/07/24 00:30:04;;;;;;;10.20;9.27;;;;;;;;;;5070045;28;20028;-61
2022/07/24 00:32:29;;;;;;;10.82;9.50;;;;;;;;;;5068879;28;20058;-62
2022/07/24 00:34:55;;;;;;;9.85;9.10;;;;;;;;;;5069611;28;20037;-61
2022/07/24 00:37:20;;;;;;;10.88;9.88;;;;;;;;;;5074339;28;20287;-61
2022/07/24 00:39:47;;;;;;;10.02;9.15;;;;;;;;;;5073794;28;20048;-61
2022/07/24 00:42:12;;;;;;;10.27;9.23;;;;;;;;;;5074688;28;20077;-61
2022/07/24 00:44:37;;;;;;;10.35;9.48;;;;;;;;;;5074072;28;20598;-61
2022/07/24 00:47:03;;;;;;;10.20;9.27;;;;;;;;;;5073516;28;20493;-61
2022/07/24 00:49:28;;;;;;;12.55;10.88;;;;;;;;;;5073686;28;20551;-61
2022/07/24 00:51:53;;;;;;;10.68;9.80;;;;;;;;;;5054929;28;20029;-61
2022/07/24 00:54:20;;;;;;;9.43;8.63;;;;;;;;;;5074247;28;20024;-62
2022/07/24 00:56:46;;;;;;;10.25;9.35;;;;;;;;;;5074078;28;20017;-61
2022/07/24 00:59:11;;;;;;;10.52;9.63;;;;;;;;;;5073171;28;20031;-62
2022/07/24 01:01:37;;;;;;;10.25;9.45;;;;;;;;;;5072729;28;20466;-62
2022/07/24 01:04:03;;;;;;;9.40;8.70;;;;;;;;;;5073076;28;20031;-61
2022/07/24 01:06:28;;;;;;;10.55;9.68;;;;;;;;;;5072835;28;20070;-62
2022/07/24 01:08:54;;;;;;;8.98;8.30;;;;;;;;;;5071559;28;20038;-62
2022/07/24 01:11:20;;;;;;;9.35;8.45;;;;;;;;;;5074072;28;20394;-62
2022/07/24 01:13:46;;;;;;;9.40;8.50;;;;;;;;;;5073967;28;20036;-61
2022/07/24 01:16:11;;;;;;;8.85;8.15;;;;;;;;;;5072617;28;20028;-61
2022/07/24 01:18:37;;;;;;;8.13;7.50;;;;;;;;;;5073025;28;20020;-62
2022/07/24 01:21:03;;;;;;;8.48;7.72;;;;;;;;;;5075940;28;20039;-62
2022/07/24 01:23:28;;;;;;;9.02;7.43;;;;;;;;;;5074887;28;20051;-63
2022/07/24 01:25:54;;;;;;;8.70;7.85;;;;;;;;;;5074861;28;20032;-61
2022/07/24 01:28:19;;;;;;;8.25;7.55;;;;;;;;;;5074322;28;20031;-61
2022/07/24 01:30:45;;;;;;;9.00;8.23;;;;;;;;;;5074137;28;20052;-60
2022/07/24 01:33:11;;;;;;;7.88;7.15;;;;;;;;;;5074312;28;20028;-61
2022/07/24 01:35:36;;;;;;;8.60;7.88;;;;;;;;;;5073939;28;20068;-61
2022/07/24 01:38:01;;;;;;;8.48;7.40;;;;;;;;;;5056402;28;20033;-61
2022/07/24 01:40:27;;;;;;;7.78;7.07;;;;;;;;;;5075713;28;20513;-60
2022/07/24 01:42:52;;;;;;;7.70;7.10;;;;;;;;;;5074628;28;20059;-60
2022/07/24 01:45:18;;;;;;;7.70;6.95;;;;;;;;;;5072289;28;20361;-61
2022/07/24 01:47:43;;;;;;;8.05;7.30;;;;;;;;;;5070152;28;20032;-60
2022/07/24 01:50:09;;;;;;;9.00;8.20;;;;;;;;;;5072773;28;20040;-61
2022/07/24 01:52:35;;;;;;;7.70;7.13;;;;;;;;;;5072709;28;20101;-63
2022/07/24 01:55:00;;;;;;;8.40;7.70;;;;;;;;;;5072143;28;20478;-62
2022/07/24 01:57:26;;;;;;;8.35;7.55;;;;;;;;;;5072903;28;20032;-61
2022/07/24 01:59:51;;;;;;;7.82;7.13;;;;;;;;;;5070796;28;20123;-61
2022/07/24 02:02:16;;;;;;;7.63;6.93;;;;;;;;;;5068888;28;20537;-61
2022/07/24 02:04:42;;;;;;;7.45;6.85;;;;;;;;;;5069316;28;20935;-61
2022/07/24 02:07:07;;;;;;;7.65;7.05;;;;;;;;;;5071566;28;20028;-61
2022/07/24 02:09:32;;;;;;;7.32;6.63;;;;;;;;;;5071940;28;20024;-60
2022/07/24 02:11:57;;;;;;;8.98;8.18;;;;;;;;;;5069632;28;20056;-60
2022/07/24 02:14:24;;;;;;;8.20;7.50;;;;;;;;;;5068868;28;20037;-61
2022/07/24 02:16:49;;;;;;;7.35;6.75;;;;;;;;;;5072857;28;20024;-61
2022/07/24 02:19:14;;;;;;;7.63;7.03;;;;;;;;;;5071878;28;20058;-60
2022/07/24 02:21:40;;;;;;;8.02;7.32;;;;;;;;;;5069453;28;20037;-61
2022/07/24 02:24:05;;;;;;;7.90;7.30;;;;;;;;;;5070953;28;20034;-62
2022/07/24 02:26:30;;;;;;;8.10;7.40;;;;;;;;;;5072305;28;20109;-62
2022/07/24 02:28:56;;;;;;;8.88;8.10;;;;;;;;;;5069297;28;20033;-61
2022/07/24 02:31:21;;;;;;;8.93;8.20;;;;;;;;;;5069494;28;20051;-61
2022/07/24 02:33:46;;;;;;;8.15;7.35;;;;;;;;;;5070522;28;20036;-61
2022/07/24 02:36:12;;;;;;;8.10;7.40;;;;;;;;;;5070099;28;20024;-61
2022/07/24 02:38:37;;;;;;;8.00;7.30;;;;;;;;;;5069652;28;20028;-61
2022/07/24 02:41:02;;;;;;;8.38;7.68;;;;;;;;;;5071340;28;20087;-61
2022/07/24 02:43:28;;;;;;;8.55;7.75;;;;;;;;;;5071314;28;20052;-60
2022/07/24 02:45:53;;;;;;;8.60;7.90;;;;;;;;;;5071684;28;20055;-60
2022/07/24 02:48:18;;;;;;;8.63;7.25;;;;;;;;;;5071801;28;20221;-61
2022/07/24 02:50:44;;;;;;;8.15;7.45;;;;;;;;;;5055786;28;20036;-60
2022/07/24 02:53:09;;;;;;;8.57;7.70;;;;;;;;;;5067865;28;20085;-61
2022/07/24 02:55:34;;;;;;;8.30;7.53;;;;;;;;;;5068118;28;20032;-60
2022/07/24 02:57:59;;;;;;;9.18;8.38;;;;;;;;;;5068463;28;20040;-61
2022/07/24 03:00:25;;;;;;;8.45;7.57;;;;;;;;;;5069714;28;20530;-61
2022/07/24 03:02:50;;;;;;;8.60;7.95;;;;;;;;;;5070916;28;20079;-62
2022/07/24 03:05:16;;;;;;;8.05;7.45;;;;;;;;;;5070738;28;20032;-62
2022/07/24 03:07:41;;;;;;;8.77;8.07;;;;;;;;;;5071030;28;20115;-60
2022/07/24 03:10:07;;;;;;;9.00;8.20;;;;;;;;;;5060444;28;20040;-62
2022/07/24 03:12:32;;;;;;;8.10;7.32;;;;;;;;;;5071230;28;20013;-61
2022/07/24 03:14:58;;;;;;;8.18;7.38;;;;;;;;;;5070096;28;20453;-61
2022/07/24 03:17:23;;;;;;;8.88;8.07;;;;;;;;;;5067325;28;20590;-62
2022/07/24 03:19:48;;;;;;;8.75;8.02;;;;;;;;;;5068348;28;20029;-62
2022/07/24 03:22:13;;;;;;;8.15;7.55;;;;;;;;;;5069374;28;20548;-62
2022/07/24 03:24:39;;;;;;;8.93;8.20;;;;;;;;;;5070271;28;20043;-61
2022/07/24 03:27:04;;;;;;;8.60;7.90;;;;;;;;;;5068606;28;20901;-61
2022/07/24 03:29:29;;;;;;;8.25;7.55;;;;;;;;;;5067861;28;20036;-62
2022/07/24 03:31:55;;;;;;;9.25;8.35;;;;;;;;;;5067328;28;20020;-61
2022/07/24 03:34:20;;;;;;;9.30;8.23;;;;;;;;;;5068381;28;20364;-62
2022/07/24 03:36:45;;;;;;;8.98;8.07;;;;;;;;;;5070433;28;20028;-61
2022/07/24 03:39:10;;;;;;;10.25;9.25;;;;;;;;;;5050012;28;20190;-61
2022/07/24 03:41:36;;;;;;;8.65;7.93;;;;;;;;;;5050117;28;20032;-61
2022/07/24 03:44:01;;;;;;;11.80;10.60;;;;;;;;;;5049920;28;20030;-61
2022/07/24 03:46:28;;;;;;;10.48;9.43;;;;;;;;;;5048125;28;20076;-61
2022/07/24 03:48:53;;;;;;;8.95;8.25;;;;;;;;;;5048195;28;20424;-61
2022/07/24 03:51:19;;;;;;;10.25;9.25;;;;;;;;;;5048462;28;20039;-61
2022/07/24 03:53:44;;;;;;;11.35;10.32;;;;;;;;;;5048945;28;20064;-61
2022/07/24 03:56:09;;;;;;;9.45;8.65;;;;;;;;;;5049128;28;20166;-61
2022/07/24 03:58:35;;;;;;;11.63;9.13;;;;;;;;;;5049681;28;20025;-64
2022/07/24 04:01:00;;;;;;;10.50;9.50;;;;;;;;;;5048694;28;20032;-61
2022/07/24 04:03:25;;;;;;;9.88;8.80;;;;;;;;;;5048647;28;20417;-61
2022/07/24 04:05:51;;;;;;;9.18;8.27;;;;;;;;;;5063200;28;20029;-61
2022/07/24 04:08:16;;;;;;;9.50;8.70;;;;;;;;;;5048232;28;20075;-61
2022/07/24 04:10:41;;;;;;;10.50;9.18;;;;;;;;;;5049099;28;20033;-61
2022/07/24 04:13:07;;;;;;;9.80;8.98;;;;;;;;;;5049271;28;20088;-61
2022/07/24 04:15:32;;;;;;;10.63;9.73;;;;;;;;;;5048068;28;20044;-61
2022/07/24 04:17:57;;;;;;;10.05;9.15;;;;;;;;;;5047692;28;20040;-61
2022/07/24 04:20:22;;;;;;;10.57;9.68;;;;;;;;;;5046694;28;20025;-61
2022/07/24 04:22:48;;;;;;;9.65;8.85;;;;;;;;;;5048618;28;20062;-61
2022/07/24 04:25:13;;;;;;;9.88;9.02;;;;;;;;;;5048204;28;20110;-62
2022/07/24 04:27:38;;;;;;;8.52;7.72;;;;;;;;;;5050015;28;20481;-61
2022/07/24 04:30:04;;;;;;;9.07;8.38;;;;;;;;;;5050130;28;20036;-61
2022/07/24 04:32:30;;;;;;;9.40;8.60;;;;;;;;;;5031607;28;20505;-61
2022/07/24 04:34:55;;;;;;;10.23;9.43;;;;;;;;;;5047351;28;20087;-60
2022/07/24 04:37:20;;;;;;;10.63;9.77;;;;;;;;;;5047816;28;20174;-61
2022/07/24 04:39:45;;;;;;;10.27;9.48;;;;;;;;;;5057580;28;20053;-61
2022/07/24 04:42:11;;;;;;;10.23;9.25;;;;;;;;;;5070649;28;20454;-62
2022/07/24 04:44:36;;;;;;;10.45;9.63;;;;;;;;;;5069447;28;20148;-61
2022/07/24 04:47:01;;;;;;;11.88;10.88;;;;;;;;;;5069050;28;20406;-62
2022/07/24 04:49:26;;;;;;;10.98;9.95;;;;;;;;;;5069090;28;20064;-61
2022/07/24 04:51:51;;;;;;;10.82;9.73;;;;;;;;;;5050606;28;20101;-62
2022/07/24 04:54:17;;;;;;;11.35;10.27;;;;;;;;;;5068494;28;20083;-62
2022/07/24 04:56:42;;;;;;;9.93;9.13;;;;;;;;;;5068259;28;20036;-61
2022/07/24 04:59:07;;;;;;;10.25;9.35;;;;;;;;;;5069494;28;20028;-61
2022/07/24 05:01:32;;;;;;;11.82;10.73;;;;;;;;;;5054549;28;20139;-61
2022/07/24 05:03:58;;;;;;;12.13;10.43;;;;;;;;;;5050782;28;20392;-60
2022/07/24 05:06:24;;;;;;;11.60;10.70;;;;;;;;;;5054802;28;20029;-60
2022/07/24 05:08:49;;;;;;;11.13;10.13;;;;;;;;;;5069688;28;20073;-62
2022/07/24 05:11:14;;;;;;;11.85;10.43;;;;;;;;;;5056251;28;20036;-61
2022/07/24 05:13:39;;;;;;;12.15;11.00;;;;;;;;;;5068723;28;20642;-61
2022/07/24 05:16:05;;;;;;;12.10;10.85;;;;;;;;;;5071154;28;20435;-61
2022/07/24 05:18:30;;;;;;;10.98;10.07;;;;;;;;;;5069033;28;20573;-61
2022/07/24 05:20:55;;;;;;;11.95;10.95;;;;;;;;;;5061337;28;20354;-62
2022/07/24 05:23:21;;;;;;;11.88;10.77;;;;;;;;;;5060461;28;20036;-62
2022/07/24 05:25:46;;;;;;;11.07;10.13;;;;;;;;;;5059850;28;20371;-61
2022/07/24 05:28:11;;;;;;;10.43;9.52;;;;;;;;;;5057492;28;20093;-60
2022/07/24 05:30:36;;;;;;;11.98;10.98;;;;;;;;;;5073217;28;20038;-61
2022/07/24 05:33:02;;;;;;;11.60;10.52;;;;;;;;;;5073375;28;20027;-61
2022/07/24 05:35:27;;;;;;;11.55;10.65;;;;;;;;;;5072712;28;20437;-61
2022/07/24 05:37:52;;;;;;;11.23;10.23;;;;;;;;;;5051769;28;20054;-62
2022/07/24 05:40:17;;;;;;;11.98;10.77;;;;;;;;;;5051233;28;20490;-64
2022/07/24 05:42:43;;;;;;;10.55;9.75;;;;;;;;;;5072720;28;20044;-63
2022/07/24 05:45:08;;;;;;;10.85;9.85;;;;;;;;;;5073193;28;20039;-61
2022/07/24 05:47:37;;;;;;;9.82;9.02;;;;;;;;;;5072497;28;20028;-62
2022/07/24 05:50:05;;;;;;;10.90;9.85;;;;;;;;;;5072938;28;20589;-62
2022/07/24 05:52:30;;;;;;;10.48;9.57;;;;;;;;;;5072290;28;20042;-62
2022/07/24 05:54:55;;;;;;;10.25;9.32;;;;;;;;;;5063704;28;20474;-62
2022/07/24 05:57:21;;;;;;;12.80;8.85;;;;;;;;;;5072016;28;20064;-63
2022/07/24 05:59:46;;;;;;;10.05;9.23;;;;;;;;;;5073393;28;20059;-62
2022/07/24 06:02:11;;;;;;;10.95;9.90;;;;;;;;;;5040745;28;20032;-62
2022/07/24 06:04:41;;;;;;;10.50;9.50;;;;;;;;;;5072474;28;20063;-64
2022/07/24 06:07:07;;;;;;;9.85;9.00;;;;;;;;;;5056433;28;20092;-62
2022/07/24 06:09:32;;;;;;;9.98;9.07;;;;;;;;;;5071128;28;20032;-63
2022/07/24 06:11:57;;;;;;;9.95;9.05;;;;;;;;;;5070163;28;20043;-63
2022/07/24 06:14:22;;;;;;;10.25;9.45;;;;;;;;;;5069484;28;20416;-63
2022/07/24 06:16:48;;;;;;;10.68;9.88;;;;;;;;;;5070286;28;20424;-64
2022/07/24 06:19:13;;;;;;;9.88;9.07;;;;;;;;;;5057171;28;20451;-63
2022/07/24 06:21:38;;;;;;;11.18;10.27;;;;;;;;;;5070729;28;20090;-62
2022/07/24 06:24:04;;;;;;;9.57;8.77;;;;;;;;;;5053261;28;20133;-64
2022/07/24 06:26:29;;;;;;;9.90;9.20;;;;;;;;;;5070695;28;20085;-64
2022/07/24 06:28:54;;;;;;;9.77;8.88;;;;;;;;;;5071083;28;20028;-64
2022/07/24 06:31:21;;;;;;;9.10;8.30;;;;;;;;;;5072602;28;20077;-64
2022/07/24 06:33:46;;;;;;;10.23;9.43;;;;;;;;;;5071330;28;20029;-65
2022/07/24 06:36:11;;;;;;;9.95;9.13;;;;;;;;;;5071638;28;20032;-64
2022/07/24 06:38:37;;;;;;;9.60;8.80;;;;;;;;;;5052234;28;20032;-62
2022/07/24 06:41:02;;;;;;;10.00;9.18;;;;;;;;;;5053450;28;20456;-63
2022/07/24 06:43:27;;;;;;;9.35;8.50;;;;;;;;;;5051618;28;20119;-64
2022/07/24 06:45:52;;;;;;;9.73;8.93;;;;;;;;;;5051926;28;20068;-64
2022/07/24 06:48:18;;;;;;;8.98;8.25;;;;;;;;;;5052863;28;20028;-65
2022/07/24 06:50:43;;;;;;;9.15;8.18;;;;;;;;;;5050287;28;20119;-64
2022/07/24 06:53:08;;;;;;;8.50;7.70;;;;;;;;;;5048768;28;20064;-64
2022/07/24 06:55:33;;;;;;;7.35;6.75;;;;;;;;;;5050616;28;20063;-64
2022/07/24 06:57:58;;;;;;;7.97;7.35;;;;;;;;;;5051374;28;20054;-64
2022/07/24 07:00:24;;;;;;;7.20;6.60;;;;;;;;;;5050797;28;20025;-62
2022/07/24 07:02:50;;;;;;;7.55;6.93;;;;;;;;;;5052459;28;20102;-62
2022/07/24 07:05:15;;;;;;;7.13;6.53;;;;;;;;;;5049328;28;20101;-61
2022/07/24 07:07:42;;;;;;;7.68;7.07;;;;;;;;;;5048538;28;20041;-61
2022/07/24 07:10:07;;;;;;;8.32;7.68;;;;;;;;;;5046895;28;20021;-61
2022/07/24 07:12:32;;;;;;;8.43;7.72;;;;;;;;;;5048713;28;20040;-62
2022/07/24 07:14:59;;;;;;;12.68;11.43;;;;;;;;;;5047603;28;20048;-65
2022/07/24 07:17:24;;;;;;;7.30;6.80;;;;;;;;;;5047758;28;20017;-65
2022/07/24 07:19:49;;;;;;;7.20;6.60;;;;;;;;;;5050872;28;20056;-63
2022/07/24 07:22:15;;;;;;;7.18;6.68;;;;;;;;;;5049637;28;20043;-64
2022/07/24 07:24:40;;;;;;;6.28;5.75;;;;;;;;;;5051269;28;20020;-65
2022/07/24 07:27:05;;;;;;;7.47;6.72;;;;;;;;;;5048927;28;20486;-65
2022/07/24 07:29:31;;;;;;;6.70;6.20;;;;;;;;;;5049631;28;20056;-64
2022/07/24 07:31:56;;;;;;;7.55;7.05;;;;;;;;;;5049200;28;20093;-64
2022/07/24 07:34:21;;;;;;;7.70;7.00;;;;;;;;;;5048761;28;20017;-63
2022/07/24 07:36:46;;;;;;;7.28;6.68;;;;;;;;;;5046876;28;20041;-66
2022/07/24 07:39:12;;;;;;;7.28;6.53;;;;;;;;;;5048116;28;20140;-64
2022/07/24 07:41:37;;;;;;;6.50;6.00;;;;;;;;;;5051218;28;20028;-65
2022/07/24 07:44:02;;;;;;;6.50;6.00;;;;;;;;;;5048232;28;20021;-65
2022/07/24 07:46:27;;;;;;;7.72;6.50;;;;;;;;;;5049732;28;20467;-64
2022/07/24 07:48:53;;;;;;;6.55;5.57;;;;;;;;;;5048834;28;20565;-65
2022/07/24 07:51:19;;;;;;;6.90;6.30;;;;;;;;;;5048009;28;20025;-64
2022/07/24 07:53:44;;;;;;;6.68;6.15;;;;;;;;;;5047128;28;20098;-65
2022/07/24 07:56:09;;;;;;;6.35;5.80;;;;;;;;;;5049550;28;20398;-65
2022/07/24 07:58:35;;;;;;;6.97;6.38;;;;;;;;;;5047182;28;20483;-65
2022/07/24 08:01:00;;;;;;;6.15;5.65;;;;;;;;;;5045330;28;20107;-66
2022/07/24 08:03:25;;;;;;;6.05;5.65;;;;;;;;;;5048093;28;20382;-64
2022/07/24 08:05:50;;;;;;;6.43;5.93;;;;;;;;;;5033846;28;20151;-65
2022/07/24 08:08:16;;;;;;;6.88;6.28;;;;;;;;;;5047534;28;20020;-65
2022/07/24 08:10:41;;;;;;;6.25;5.75;;;;;;;;;;5039750;28;20519;-65
2022/07/24 08:13:06;;;;;;;6.60;6.10;;;;;;;;;;5048673;28;20555;-65
2022/07/24 08:15:31;;;;;;;6.05;5.57;;;;;;;;;;5049131;28;20033;-64
2022/07/24 08:17:57;;;;;;;5.68;5.28;;;;;;;;;;5049211;28;20518;-65
2022/07/24 08:20:23;;;;;;;5.97;5.47;;;;;;;;;;5063119;28;20134;-64
2022/07/24 08:22:49;;;;;;;6.03;5.63;;;;;;;;;;5049508;28;20029;-65
2022/07/24 08:25:14;;;;;;;5.85;5.45;;;;;;;;;;5048255;28;20078;-64
2022/07/24 08:27:39;;;;;;;5.50;5.10;;;;;;;;;;5047215;28;20053;-62
2022/07/24 08:30:05;;;;;;;6.10;5.55;;;;;;;;;;5043354;28;20032;-62
2022/07/24 08:32:31;;;;;;;7.18;5.82;;;;;;;;;;5050520;28;20036;-61
2022/07/24 08:34:56;;;;;;;6.03;5.45;;;;;;;;;;5049547;28;20037;-61
2022/07/24 08:37:21;;;;;;;6.05;5.65;;;;;;;;;;5049060;28;20032;-61
2022/07/24 08:39:46;;;;;;;6.88;6.28;;;;;;;;;;5055246;28;20052;-61
2022/07/24 08:42:12;;;;;;;7.10;6.50;;;;;;;;;;5065566;28;20024;-60
2022/07/24 08:44:38;;;;;;;7.50;6.90;;;;;;;;;;5067908;28;20060;-61
2022/07/24 08:47:03;;;;;;;6.47;6.07;;;;;;;;;;5069303;28;20017;-60
2022/07/24 08:49:31;;;;;;;5.03;4.72;;;;;;;;;;5069399;28;20024;-60
2022/07/24 08:51:59;;;;;;;6.40;5.95;;;;;;;;;;5068604;28;20528;-59
2022/07/24 08:54:24;;;;;;;6.60;6.10;;;;;;;;;;5069637;28;20035;-60
2022/07/24 08:56:49;;;;;;;6.70;6.20;;;;;;;;;;5070375;28;20029;-60
2022/07/24 08:59:18;;;;;;;6.32;5.72;;;;;;;;;;5074246;28;20110;-60
2022/07/24 09:01:44;;;;;;;6.78;6.28;;;;;;;;;;5073159;28;20048;-61
2022/07/24 09:04:28;;;;;;;6.03;5.53;;;;;;;;;;5074978;28;20115;-60
2022/07/24 09:06:57;;;;;;;7.37;6.67;;;;;;;;;;5073310;28;20059;-60
2022/07/24 09:09:22;;;;;;;6.28;5.88;;;;;;;;;;5073272;28;20255;-61
2022/07/24 09:11:49;;;;;;;6.70;6.22;;;;;;;;;;5072493;28;20581;-60
2022/07/24 09:14:29;;;;;;;6.38;5.90;;;;;;;;;;5056048;28;20033;-60
2022/07/24 09:17:01;;;;;;;7.20;6.68;;;;;;;;;;5072329;28;20028;-60
2022/07/24 09:19:26;;;;;;;6.43;5.88;;;;;;;;;;5072920;28;20025;-60
2022/07/24 09:21:53;;;;;;;6.38;5.93;;;;;;;;;;5072843;28;20478;-60
2022/07/24 09:24:20;;;;;;;7.30;6.80;;;;;;;;;;5072137;28;20036;-59
2022/07/24 09:26:52;;;;;;;7.60;7.10;;;;;;;;;;5072826;28;20032;-60
2022/07/24 09:29:19;;;;;;;7.13;6.63;;;;;;;;;;5072239;28;20542;-59
2022/07/24 09:31:58;;;;;;;7.28;6.78;;;;;;;;;;5053853;28;20063;-60
2022/07/24 09:34:24;;;;;;;7.22;6.68;;;;;;;;;;5069450;28;20100;-60
2022/07/24 09:36:56;;;;;;;7.05;6.45;;;;;;;;;;5071388;28;20024;-63
2022/07/24 09:39:22;;;;;;;7.20;6.60;;;;;;;;;;5072641;28;20066;-66
2022/07/24 09:41:52;;;;;;;7.70;6.93;;;;;;;;;;5073312;28;20771;-67
2022/07/24 09:44:17;;;;;;;7.43;6.90;;;;;;;;;;5051260;28;20095;-68
2022/07/24 09:46:46;;;;;;;9.85;6.53;;;;;;;;;;5070646;28;20115;-67
2022/07/24 09:49:18;;;;;;;8.35;7.60;;;;;;;;;;5071457;28;20027;-64
2022/07/24 09:51:43;;;;;;;7.43;6.72;;;;;;;;;;5070347;28;20090;-67
2022/07/24 09:54:09;;;;;;;7.78;6.93;;;;;;;;;;5071665;28;20497;-72
2022/07/24 09:56:35;;;;;;;7.40;6.75;;;;;;;;;;5070307;28;20032;-72
2022/07/24 09:59:02;;;;;;;9.23;7.10;;;;;;;;;;5070825;28;20020;-65
2022/07/24 10:01:28;;;;;;;6.95;6.45;;;;;;;;;;5070458;28;20426;-70
2022/07/24 10:03:55;;;;;;;7.50;6.90;;;;;;;;;;5072241;28;20028;-69
2022/07/24 10:06:22;;;;;;;7.75;7.05;;;;;;;;;;5053831;28;20090;-69
2022/07/24 10:08:48;;;;;;;6.90;6.40;;;;;;;;;;5055023;28;20088;-67
2022/07/24 10:11:14;;;;;;;8.05;6.28;;;;;;;;;;5058108;28;20028;-65
2022/07/24 10:13:39;;;;;;;7.07;6.50;;;;;;;;;;5072749;28;20017;-66
2022/07/24 10:16:14;;;;;;;6.68;6.28;;;;;;;;;;5045392;28;20398;-65
2022/07/24 10:18:39;;;;;;;6.43;5.97;;;;;;;;;;5071476;28;20032;-68
2022/07/24 10:21:10;;;;;;;7.47;6.53;;;;;;;;;;5056299;28;20047;-69
2022/07/24 10:23:51;;;;;;;7.72;7.13;;;;;;;;;;5048185;28;20371;-69
2022/07/24 10:26:23;;;;;;;83.47;59.42;;;;;;;;;;5071571;28;20612;-68
2022/07/24 10:28:53;;;;;;;9.38;8.55;;;;;;;;;;5051904;28;20020;-67
2022/07/24 10:31:18;;;;;;;7.55;6.72;;;;;;;;;;5052777;28;20119;-66
2022/07/24 10:33:48;;;;;;;6.97;6.30;;;;;;;;;;5070545;28;20024;-66
2022/07/24 10:36:19;;;;;;;8.02;7.45;;;;;;;;;;5070443;28;20483;-66
2022/07/24 10:38:49;;;;;;;7.78;7.07;;;;;;;;;;5069247;28;20489;-65
2022/07/24 10:41:20;;;;;;;6.63;6.13;;;;;;;;;;5068330;28;20085;-64
2022/07/24 10:44:05;;;;;;;6.95;6.45;;;;;;;;;;5069875;28;20036;-62
2022/07/24 10:46:30;;;;;;;6.70;6.20;;;;;;;;;;5067815;28;20111;-64
2022/07/24 10:48:55;;;;;;;7.35;6.75;;;;;;;;;;5069312;28;20427;-70
2022/07/24 10:51:24;;;;;;;7.03;6.53;;;;;;;;;;5070772;28;20035;-66
2022/07/24 10:53:51;;;;;;;7.05;6.45;;;;;;;;;;5071240;28;20239;-67
2022/07/24 10:56:21;;;;;;;6.15;5.65;;;;;;;;;;5070021;28;20054;-71
2022/07/24 10:58:54;;;;;;;6.32;5.93;;;;;;;;;;5069080;28;20031;-70
2022/07/24 11:01:30;;;;;;;7.88;7.28;;;;;;;;;;5070730;28;20021;-64
2022/07/24 11:03:57;;;;;;;6.50;6.03;;;;;;;;;;5069481;28;20028;-65
2022/07/24 11:06:42;;;;;;;7.32;6.82;;;;;;;;;;5068996;28;20486;-65
2022/07/24 11:09:08;;;;;;;6.32;5.88;;;;;;;;;;5068145;28;20088;-66
2022/07/24 11:11:33;;;;;;;6.60;6.10;;;;;;;;;;5069252;28;20029;-66
2022/07/24 11:14:01;;;;;;;7.40;6.68;;;;;;;;;;5067428;28;20076;-66
2022/07/24 11:16:28;;;;;;;7.43;6.65;;;;;;;;;;5067065;28;20542;-66
2022/07/24 11:18:53;;;;;;;8.27;7.53;;;;;;;;;;5069646;28;20059;-67
2022/07/24 11:21:29;;;;;;;17.90;10.37;;;;;;;;;;5051264;28;20119;-66
2022/07/24 11:24:13;;;;;;;6.82;6.43;;;;;;;;;;5069899;28;20310;-65
2022/07/24 11:26:40;;;;;;;7.93;7.22;;;;;;;;;;5070324;28;20467;-65
2022/07/24 11:29:15;;;;;;;8.23;7.38;;;;;;;;;;5068578;28;20039;-65
2022/07/24 11:31:42;;;;;;;7.78;7.18;;;;;;;;;;5049194;28;20063;-66
2022/07/24 11:34:08;;;;;;;7.35;6.65;;;;;;;;;;5066477;28;20391;-65
2022/07/24 11:36:34;;;;;;;5.75;5.35;;;;;;;;;;5067132;28;20056;-65
2022/07/24 11:39:00;;;;;;;8.07;7.53;;;;;;;;;;5066300;28;20455;-65
2022/07/24 11:41:25;;;;;;;5.95;5.65;;;;;;;;;;5068179;28;20075;-65
2022/07/24 11:43:54;;;;;;;7.47;6.97;;;;;;;;;;5053641;28;20031;-65
2022/07/24 11:46:33;;;;;;;7.07;6.50;;;;;;;;;;5053893;28;20028;-66
2022/07/24 11:49:02;;;;;;;6.70;6.22;;;;;;;;;;5069217;28;20024;-65
2022/07/24 11:51:28;;;;;;;5.82;5.43;;;;;;;;;;5051745;28;20071;-67
2022/07/24 11:53:53;;;;;;;8.00;7.30;;;;;;;;;;5069029;28;20112;-66
2022/07/24 11:56:18;;;;;;;7.00;6.40;;;;;;;;;;5051198;28;20459;-66
2022/07/24 11:58:44;;;;;;;6.68;6.20;;;;;;;;;;5068826;28;20143;-66
2022/07/24 12:01:19;;;;;;;6.95;6.43;;;;;;;;;;5065676;28;20051;-66
2022/07/24 12:03:48;;;;;;;7.03;6.43;;;;;;;;;;5066926;28;20029;-66
2022/07/24 12:06:14;;;;;;;6.47;6.07;;;;;;;;;;5053496;28;20020;-65
2022/07/24 12:08:40;;;;;;;7.07;6.65;;;;;;;;;;5068272;28;20021;-69
2022/07/24 12:11:06;;;;;;;7.07;6.57;;;;;;;;;;5069796;28;20074;-66
2022/07/24 12:13:32;;;;;;;6.50;5.90;;;;;;;;;;5068690;28;20596;-68
2022/07/24 12:15:58;;;;;;;7.07;6.47;;;;;;;;;;5067762;28;20108;-68
2022/07/24 12:18:23;;;;;;;6.53;5.93;;;;;;;;;;5032601;28;20217;-66
2022/07/24 12:20:49;;;;;;;7.07;6.57;;;;;;;;;;5048708;28;20103;-66
2022/07/24 12:23:15;;;;;;;6.90;6.40;;;;;;;;;;5068203;28;20027;-63
2022/07/24 12:25:41;;;;;;;6.55;5.90;;;;;;;;;;5067981;28;20514;-64
2022/07/24 12:28:07;;;;;;;6.57;6.18;;;;;;;;;;5068919;28;20029;-64
2022/07/24 12:30:34;;;;;;;7.72;7.13;;;;;;;;;;5066349;28;20051;-65
2022/07/24 12:33:01;;;;;;;9.25;6.90;;;;;;;;;;5047346;28;20051;-64
2022/07/24 12:35:27;;;;;;;6.85;6.35;;;;;;;;;;5066026;28;20430;-65
2022/07/24 12:37:53;;;;;;;10.35;9.55;;;;;;;;;;5052113;28;20024;-62
2022/07/24 12:40:29;;;;;;;9.82;8.95;;;;;;;;;;5067184;28;20055;-67
2022/07/24 12:42:59;;;;;;;7.60;6.95;;;;;;;;;;5065173;28;20458;-67
2022/07/24 12:45:24;;;;;;;6.20;5.80;;;;;;;;;;5068617;28;20020;-66
2022/07/24 12:48:05;;;;;;;6.65;6.15;;;;;;;;;;5050193;28;20037;-66
2022/07/24 12:50:31;;;;;;;6.72;6.32;;;;;;;;;;5057069;28;20381;-65
2022/07/24 12:53:02;;;;;;;7.57;7.18;;;;;;;;;;5068209;28;20093;-65
2022/07/24 12:55:27;;;;;;;10.65;7.05;;;;;;;;;;5067936;28;20484;-65
2022/07/24 12:57:56;;;;;;;7.18;6.60;;;;;;;;;;5052303;28;20123;-66
2022/07/24 13:00:22;;;;;;;6.40;5.85;;;;;;;;;;5050406;28;20029;-67
2022/07/24 13:02:49;;;;;;;7.38;6.95;;;;;;;;;;5049635;28;20029;-65
2022/07/24 13:05:14;;;;;;;7.57;6.82;;;;;;;;;;5067664;28;20024;-65
2022/07/24 13:07:39;;;;;;;8.20;7.60;;;;;;;;;;5069369;28;20031;-66
2022/07/24 13:10:05;;;;;;;7.72;7.13;;;;;;;;;;5059701;28;20056;-67
2022/07/24 13:12:30;;;;;;;7.50;7.00;;;;;;;;;;5068807;28;20454;-67
2022/07/24 13:14:55;;;;;;;6.97;6.45;;;;;;;;;;5034477;28;20039;-66
2022/07/24 13:17:20;;;;;;;6.57;6.07;;;;;;;;;;5065627;28;20035;-65
2022/07/24 13:19:50;;;;;;;7.80;7.30;;;;;;;;;;5066709;28;20053;-66
2022/07/24 13:22:15;;;;;;;6.50;6.00;;;;;;;;;;5068030;28;20481;-65
2022/07/24 13:24:41;;;;;;;8.05;7.38;;;;;;;;;;5068932;28;20032;-65
2022/07/24 13:27:07;;;;;;;6.80;6.30;;;;;;;;;;5068399;28;20075;-66
2022/07/24 13:29:34;;;;;;;7.40;6.90;;;;;;;;;;5066957;28;20103;-66
2022/07/24 13:31:59;;;;;;;7.05;6.55;;;;;;;;;;5052649;28;20043;-65
2022/07/24 13:34:25;;;;;;;7.97;7.05;;;;;;;;;;5068638;28;20024;-66
2022/07/24 13:36:50;;;;;;;6.95;6.47;;;;;;;;;;5067625;28;20441;-67
2022/07/24 13:39:16;;;;;;;7.20;6.78;;;;;;;;;;5067437;28;20064;-66
2022/07/24 13:41:41;;;;;;;7.32;6.82;;;;;;;;;;5059391;28;20624;-67
2022/07/24 13:44:07;;;;;;;6.07;5.75;;;;;;;;;;5069995;28;20040;-67
2022/07/24 13:46:33;;;;;;;7.75;6.47;;;;;;;;;;5068601;28;20394;-67
2022/07/24 13:49:00;;;;;;;7.38;6.88;;;;;;;;;;5069207;28;20382;-66
2022/07/24 13:51:25;;;;;;;7.40;6.85;;;;;;;;;;5068626;28;20127;-67
2022/07/24 13:53:51;;;;;;;7.03;6.53;;;;;;;;;;5049652;28;20470;-68
2022/07/24 13:56:16;;;;;;;6.72;6.22;;;;;;;;;;5067970;28;20558;-68
2022/07/24 13:58:42;;;;;;;6.97;6.47;;;;;;;;;;5071583;28;20433;-66
2022/07/24 14:01:08;;;;;;;7.03;6.53;;;;;;;;;;5071860;28;20037;-66
2022/07/24 14:03:33;;;;;;;7.85;7.35;;;;;;;;;;5055516;28;20028;-67
2022/07/24 14:05:59;;;;;;;7.22;6.82;;;;;;;;;;5068132;28;20052;-66
2022/07/24 14:08:24;;;;;;;7.93;7.32;;;;;;;;;;5052513;28;20133;-65
2022/07/24 14:10:49;;;;;;;7.40;6.68;;;;;;;;;;5069914;28;20032;-65
2022/07/24 14:13:14;;;;;;;7.35;6.85;;;;;;;;;;5070665;28;20469;-67
2022/07/24 14:15:40;;;;;;;7.50;7.05;;;;;;;;;;5070094;28;20065;-67
2022/07/24 14:18:05;;;;;;;7.05;6.55;;;;;;;;;;5072437;28;20100;-69
2022/07/24 14:20:30;;;;;;;7.50;7.00;;;;;;;;;;5069958;28;20021;-68
2022/07/24 14:22:55;;;;;;;8.18;7.55;;;;;;;;;;5053824;28;20064;-66
2022/07/24 14:25:21;;;;;;;7.28;6.88;;;;;;;;;;5070700;28;20564;-66
2022/07/24 14:27:46;;;;;;;6.85;6.35;;;;;;;;;;5071091;28;20036;-67
2022/07/24 14:30:12;;;;;;;6.85;6.45;;;;;;;;;;5071482;28;20067;-67
2022/07/24 14:32:38;;;;;;;7.45;6.75;;;;;;;;;;5053829;28;20429;-67